sensor_id;sensor_type;location;lat;lon;timestamp;P1;durP1;ratioP1;P2;durP2;ratioP2
58685;SDS011;44465;53.206;-6.106;2023-01-15T00:01:22;0.70;;;0.68;;
58685;SDS011;44465;53.206;-6.106;2023-01-15T00:03:53;3.33;;;0.93;;
58685;SDS011;44465;53.206;-6.106;2023-01-15T00:06:20;1.58;;;0.85;;
58685;SDS011;44465;53.206;-6.106;2023-01-15T00:08:46;1.90;;;0.80;;
58685;SDS011;44465;53.206;-6.106;2023-01-15T00:11:12;1.23;;;0.75;;
58685;SDS011;44465;53.206;-6.106;2023-01-15T00:13:38;2.13;;;0.60;;
58685;SDS011;44465;53.206;-6.106;2023-01-15T00:16:12;1.90;;;1.13;;
58685;SDS011;44465;53.206;-6.106;2023-01-15T00:18:39;2.78;;;0.70;;
58685;SDS011;44465;53.206;-6.106;2023-01-15T00:21:06;1.27;;;0.70;;
58685;SDS011;44465;53.206;-6.106;2023-01-15T00:23:34;2.88;;;0.90;;
58685;SDS011;44465;53.206;-6.106;2023-01-15T00:26:19;1.55;;;0.93;;
58685;SDS011;44465;53.206;-6.106;2023-01-15T00:29:05;1.43;;;0.70;;
58685;SDS011;44465;53.206;-6.106;2023-01-15T00:31:31;0.50;;;0.43;;
58685;SDS011;44465;53.206;-6.106;2023-01-15T00:33:59;0.52;;;0.52;;
58685;SDS011;44465;53.206;-6.106;2023-01-15T00:36:25;0.52;;;0.52;;
58685;SDS011;44465;53.206;-6.106;2023-01-15T00:38:51;1.30;;;0.80;;
58685;SDS011;44465;53.206;-6.106;2023-01-15T00:41:18;1.10;;;0.50;;
58685;SDS011;44465;53.206;-6.106;2023-01-15T00:43:43;1.63;;;0.50;;
58685;SDS011;44465;53.206;-6.106;2023-01-15T00:46:10;3.15;;;0.70;;
58685;SDS011;44465;53.206;-6.106;2023-01-15T00:48:36;2.08;;;0.57;;
58685;SDS011;44465;53.206;-6.106;2023-01-15T00:51:02;0.55;;;0.55;;
58685;SDS011;44465;53.206;-6.106;2023-01-15T00:53:28;1.23;;;0.50;;
58685;SDS011;44465;53.206;-6.106;2023-01-15T00:55:54;0.73;;;0.50;;
58685;SDS011;44465;53.206;-6.106;2023-01-15T00:58:20;0.68;;;0.68;;
58685;SDS011;44465;53.206;-6.106;2023-01-15T01:00:45;1.77;;;0.57;;
58685;SDS011;44465;53.206;-6.106;2023-01-15T01:03:12;0.50;;;0.45;;
58685;SDS011;44465;53.206;-6.106;2023-01-15T01:05:37;1.35;;;0.90;;
58685;SDS011;44465;53.206;-6.106;2023-01-15T01:08:03;1.33;;;0.70;;
58685;SDS011;44465;53.206;-6.106;2023-01-15T01:10:29;2.67;;;0.70;;
58685;SDS011;44465;53.206;-6.106;2023-01-15T01:12:55;0.95;;;0.57;;
58685;SDS011;44465;53.206;-6.106;2023-01-15T01:15:21;0.70;;;0.68;;
58685;SDS011;44465;53.206;-6.106;2023-01-15T01:17:48;1.77;;;0.60;;
58685;SDS011;44465;53.206;-6.106;2023-01-15T01:20:14;0.57;;;0.55;;
58685;SDS011;44465;53.206;-6.106;2023-01-15T01:25:07;1.38;;;0.60;;
58685;SDS011;44465;53.206;-6.106;2023-01-15T01:27:35;0.85;;;0.70;;
58685;SDS011;44465;53.206;-6.106;2023-01-15T01:30:00;1.10;;;0.50;;
58685;SDS011;44465;53.206;-6.106;2023-01-15T01:32:27;0.50;;;0.50;;
58685;SDS011;44465;53.206;-6.106;2023-01-15T01:34:52;0.40;;;0.40;;
58685;SDS011;44465;53.206;-6.106;2023-01-15T01:37:17;0.43;;;0.43;;
58685;SDS011;44465;53.206;-6.106;2023-01-15T01:39:43;0.60;;;0.43;;
58685;SDS011;44465;53.206;-6.106;2023-01-15T01:42:13;0.40;;;0.40;;
58685;SDS011;44465;53.206;-6.106;2023-01-15T01:47:29;1.40;;;0.60;;
58685;SDS011;44465;53.206;-6.106;2023-01-15T01:50:00;1.67;;;0.47;;
58685;SDS011;44465;53.206;-6.106;2023-01-15T01:52:32;0.73;;;0.40;;
58685;SDS011;44465;53.206;-6.106;2023-01-15T01:55:04;1.02;;;0.30;;
58685;SDS011;44465;53.206;-6.106;2023-01-15T01:57:30;0.52;;;0.32;;
58685;SDS011;44465;53.206;-6.106;2023-01-15T01:59:57;0.52;;;0.32;;
58685;SDS011;44465;53.206;-6.106;2023-01-15T02:02:25;0.50;;;0.25;;
58685;SDS011;44465;53.206;-6.106;2023-01-15T02:04:51;1.85;;;0.55;;
58685;SDS011;44465;53.206;-6.106;2023-01-15T02:07:16;1.00;;;0.40;;
58685;SDS011;44465;53.206;-6.106;2023-01-15T02:09:42;0.73;;;0.50;;
58685;SDS011;44465;53.206;-6.106;2023-01-15T02:12:10;1.08;;;0.40;;
58685;SDS011;44465;53.206;-6.106;2023-01-15T02:14:46;1.13;;;0.38;;
58685;SDS011;44465;53.206;-6.106;2023-01-15T02:17:26;0.52;;;0.30;;
58685;SDS011;44465;53.206;-6.106;2023-01-15T02:27:52;0.47;;;0.47;;
58685;SDS011;44465;53.206;-6.106;2023-01-15T02:30:32;0.35;;;0.30;;
58685;SDS011;44465;53.206;-6.106;2023-01-15T02:35:33;1.08;;;0.40;;
58685;SDS011;44465;53.206;-6.106;2023-01-15T02:38:09;0.77;;;0.40;;
58685;SDS011;44465;53.206;-6.106;2023-01-15T02:40:39;0.60;;;0.40;;
58685;SDS011;44465;53.206;-6.106;2023-01-15T02:43:07;0.30;;;0.30;;
58685;SDS011;44465;53.206;-6.106;2023-01-15T02:45:38;2.85;;;0.30;;
58685;SDS011;44465;53.206;-6.106;2023-01-15T02:48:12;0.80;;;0.30;;
58685;SDS011;44465;53.206;-6.106;2023-01-15T02:50:39;0.40;;;0.40;;
58685;SDS011;44465;53.206;-6.106;2023-01-15T02:53:09;1.52;;;0.45;;
58685;SDS011;44465;53.206;-6.106;2023-01-15T02:55:41;0.38;;;0.20;;
58685;SDS011;44465;53.206;-6.106;2023-01-15T02:58:13;0.98;;;0.40;;
58685;SDS011;44465;53.206;-6.106;2023-01-15T03:00:46;0.38;;;0.30;;
58685;SDS011;44465;53.206;-6.106;2023-01-15T03:03:36;0.28;;;0.28;;
58685;SDS011;44465;53.206;-6.106;2023-01-15T03:06:02;0.50;;;0.20;;
58685;SDS011;44465;53.206;-6.106;2023-01-15T03:08:33;1.23;;;0.40;;
58685;SDS011;44465;53.206;-6.106;2023-01-15T03:11:09;0.90;;;0.30;;
58685;SDS011;44465;53.206;-6.106;2023-01-15T03:22:01;1.00;;;0.57;;
58685;SDS011;44465;53.206;-6.106;2023-01-15T03:24:32;0.70;;;0.30;;
58685;SDS011;44465;53.206;-6.106;2023-01-15T03:27:02;0.80;;;0.28;;
58685;SDS011;44465;53.206;-6.106;2023-01-15T03:29:30;0.20;;;0.20;;
58685;SDS011;44465;53.206;-6.106;2023-01-15T03:32:00;0.30;;;0.30;;
58685;SDS011;44465;53.206;-6.106;2023-01-15T03:34:28;0.47;;;0.40;;
58685;SDS011;44465;53.206;-6.106;2023-01-15T03:37:06;1.00;;;0.20;;
58685;SDS011;44465;53.206;-6.106;2023-01-15T03:39:32;0.50;;;0.35;;
58685;SDS011;44465;53.206;-6.106;2023-01-15T03:50:03;1.08;;;0.28;;
58685;SDS011;44465;53.206;-6.106;2023-01-15T03:52:51;0.52;;;0.38;;
58685;SDS011;44465;53.206;-6.106;2023-01-15T03:55:21;0.45;;;0.20;;
58685;SDS011;44465;53.206;-6.106;2023-01-15T03:58:01;0.30;;;0.30;;
58685;SDS011;44465;53.206;-6.106;2023-01-15T04:00:39;0.30;;;0.30;;
58685;SDS011;44465;53.206;-6.106;2023-01-15T04:03:09;1.05;;;0.40;;
58685;SDS011;44465;53.206;-6.106;2023-01-15T04:05:38;1.38;;;0.35;;
58685;SDS011;44465;53.206;-6.106;2023-01-15T04:08:05;0.47;;;0.30;;
58685;SDS011;44465;53.206;-6.106;2023-01-15T04:10:32;0.63;;;0.22;;
58685;SDS011;44465;53.206;-6.106;2023-01-15T04:12:59;1.23;;;0.22;;
58685;SDS011;44465;53.206;-6.106;2023-01-15T04:15:24;1.55;;;0.40;;
58685;SDS011;44465;53.206;-6.106;2023-01-15T04:17:50;2.05;;;0.30;;
58685;SDS011;44465;53.206;-6.106;2023-01-15T04:20:16;0.32;;;0.30;;
58685;SDS011;44465;53.206;-6.106;2023-01-15T04:22:43;0.20;;;0.20;;
58685;SDS011;44465;53.206;-6.106;2023-01-15T04:25:09;1.13;;;0.30;;
58685;SDS011;44465;53.206;-6.106;2023-01-15T04:27:34;0.25;;;0.25;;
58685;SDS011;44465;53.206;-6.106;2023-01-15T04:30:00;0.52;;;0.30;;
58685;SDS011;44465;53.206;-6.106;2023-01-15T04:32:25;0.63;;;0.20;;
58685;SDS011;44465;53.206;-6.106;2023-01-15T04:34:51;0.20;;;0.20;;
58685;SDS011;44465;53.206;-6.106;2023-01-15T04:37:17;0.20;;;0.20;;
58685;SDS011;44465;53.206;-6.106;2023-01-15T04:39:43;0.20;;;0.20;;
58685;SDS011;44465;53.206;-6.106;2023-01-15T04:42:12;0.47;;;0.35;;
58685;SDS011;44465;53.206;-6.106;2023-01-15T04:44:57;0.57;;;0.40;;
58685;SDS011;44465;53.206;-6.106;2023-01-15T04:47:22;0.10;;;0.10;;
58685;SDS011;44465;53.206;-6.106;2023-01-15T04:49:48;0.20;;;0.20;;
58685;SDS011;44465;53.206;-6.106;2023-01-15T04:52:14;0.40;;;0.28;;
58685;SDS011;44465;53.206;-6.106;2023-01-15T04:54:40;1.77;;;0.30;;
58685;SDS011;44465;53.206;-6.106;2023-01-15T04:57:05;0.43;;;0.30;;
58685;SDS011;44465;53.206;-6.106;2023-01-15T04:59:31;0.20;;;0.20;;
58685;SDS011;44465;53.206;-6.106;2023-01-15T05:01:57;0.10;;;0.10;;
58685;SDS011;44465;53.206;-6.106;2023-01-15T05:04:22;0.70;;;0.30;;
58685;SDS011;44465;53.206;-6.106;2023-01-15T05:06:48;1.10;;;1.00;;
58685;SDS011;44465;53.206;-6.106;2023-01-15T05:09:13;0.13;;;0.13;;
58685;SDS011;44465;53.206;-6.106;2023-01-15T05:11:39;0.95;;;0.25;;
58685;SDS011;44465;53.206;-6.106;2023-01-15T05:14:05;0.20;;;0.20;;
58685;SDS011;44465;53.206;-6.106;2023-01-15T05:16:31;0.10;;;0.10;;
58685;SDS011;44465;53.206;-6.106;2023-01-15T05:19:01;0.60;;;0.30;;
58685;SDS011;44465;53.206;-6.106;2023-01-15T05:21:29;0.55;;;0.20;;
58685;SDS011;44465;53.206;-6.106;2023-01-15T05:23:57;1.38;;;0.65;;
58685;SDS011;44465;53.206;-6.106;2023-01-15T05:26:24;1.08;;;0.20;;
58685;SDS011;44465;53.206;-6.106;2023-01-15T05:28:54;0.35;;;0.35;;
58685;SDS011;44465;53.206;-6.106;2023-01-15T05:31:20;0.10;;;0.10;;
58685;SDS011;44465;53.206;-6.106;2023-01-15T05:33:47;0.30;;;0.20;;
58685;SDS011;44465;53.206;-6.106;2023-01-15T05:36:15;0.25;;;0.20;;
58685;SDS011;44465;53.206;-6.106;2023-01-15T05:38:42;0.77;;;0.22;;
58685;SDS011;44465;53.206;-6.106;2023-01-15T05:41:09;1.70;;;0.47;;
58685;SDS011;44465;53.206;-6.106;2023-01-15T05:43:55;0.40;;;0.30;;
58685;SDS011;44465;53.206;-6.106;2023-01-15T05:46:23;0.55;;;0.50;;
58685;SDS011;44465;53.206;-6.106;2023-01-15T05:48:49;0.47;;;0.25;;
58685;SDS011;44465;53.206;-6.106;2023-01-15T05:51:15;1.25;;;0.30;;
58685;SDS011;44465;53.206;-6.106;2023-01-15T05:53:40;0.98;;;0.30;;
58685;SDS011;44465;53.206;-6.106;2023-01-15T05:56:06;0.55;;;0.40;;
58685;SDS011;44465;53.206;-6.106;2023-01-15T05:58:32;1.08;;;0.28;;
58685;SDS011;44465;53.206;-6.106;2023-01-15T06:00:58;0.55;;;0.38;;
58685;SDS011;44465;53.206;-6.106;2023-01-15T06:03:25;1.27;;;0.38;;
58685;SDS011;44465;53.206;-6.106;2023-01-15T06:05:51;0.30;;;0.22;;
58685;SDS011;44465;53.206;-6.106;2023-01-15T06:08:17;0.32;;;0.20;;
58685;SDS011;44465;53.206;-6.106;2023-01-15T06:10:43;0.43;;;0.20;;
58685;SDS011;44465;53.206;-6.106;2023-01-15T06:13:09;0.88;;;0.30;;
58685;SDS011;44465;53.206;-6.106;2023-01-15T06:15:35;0.30;;;0.30;;
58685;SDS011;44465;53.206;-6.106;2023-01-15T06:18:00;0.50;;;0.40;;
58685;SDS011;44465;53.206;-6.106;2023-01-15T06:20:26;1.23;;;0.20;;
58685;SDS011;44465;53.206;-6.106;2023-01-15T06:22:51;0.38;;;0.22;;
58685;SDS011;44465;53.206;-6.106;2023-01-15T06:25:17;0.30;;;0.30;;
58685;SDS011;44465;53.206;-6.106;2023-01-15T06:27:43;0.68;;;0.32;;
58685;SDS011;44465;53.206;-6.106;2023-01-15T06:30:09;0.13;;;0.13;;
58685;SDS011;44465;53.206;-6.106;2023-01-15T06:32:35;0.35;;;0.32;;
58685;SDS011;44465;53.206;-6.106;2023-01-15T06:35:01;0.52;;;0.30;;
58685;SDS011;44465;53.206;-6.106;2023-01-15T06:37:26;0.25;;;0.20;;
58685;SDS011;44465;53.206;-6.106;2023-01-15T06:39:52;0.40;;;0.30;;
58685;SDS011;44465;53.206;-6.106;2023-01-15T06:42:17;0.32;;;0.20;;
58685;SDS011;44465;53.206;-6.106;2023-01-15T06:45:01;1.42;;;0.45;;
58685;SDS011;44465;53.206;-6.106;2023-01-15T06:47:46;0.20;;;0.20;;
58685;SDS011;44465;53.206;-6.106;2023-01-15T06:50:12;0.30;;;0.30;;
58685;SDS011;44465;53.206;-6.106;2023-01-15T06:52:38;0.73;;;0.30;;
58685;SDS011;44465;53.206;-6.106;2023-01-15T06:55:03;0.30;;;0.30;;
58685;SDS011;44465;53.206;-6.106;2023-01-15T06:57:29;0.30;;;0.28;;
58685;SDS011;44465;53.206;-6.106;2023-01-15T06:59:54;0.25;;;0.20;;
58685;SDS011;44465;53.206;-6.106;2023-01-15T07:02:20;1.55;;;0.35;;
58685;SDS011;44465;53.206;-6.106;2023-01-15T07:04:46;0.20;;;0.20;;
58685;SDS011;44465;53.206;-6.106;2023-01-15T07:07:16;0.32;;;0.20;;
58685;SDS011;44465;53.206;-6.106;2023-01-15T07:09:43;1.08;;;0.30;;
58685;SDS011;44465;53.206;-6.106;2023-01-15T07:12:09;0.32;;;0.20;;
58685;SDS011;44465;53.206;-6.106;2023-01-15T07:14:35;0.45;;;0.30;;
58685;SDS011;44465;53.206;-6.106;2023-01-15T07:17:00;0.20;;;0.20;;
58685;SDS011;44465;53.206;-6.106;2023-01-15T07:19:26;0.50;;;0.32;;
58685;SDS011;44465;53.206;-6.106;2023-01-15T07:21:52;0.30;;;0.30;;
58685;SDS011;44465;53.206;-6.106;2023-01-15T07:24:18;0.45;;;0.43;;
58685;SDS011;44465;53.206;-6.106;2023-01-15T07:26:44;1.55;;;0.35;;
58685;SDS011;44465;53.206;-6.106;2023-01-15T07:29:10;0.47;;;0.30;;
58685;SDS011;44465;53.206;-6.106;2023-01-15T07:31:36;0.40;;;0.40;;
58685;SDS011;44465;53.206;-6.106;2023-01-15T07:34:02;1.23;;;0.22;;
58685;SDS011;44465;53.206;-6.106;2023-01-15T07:36:28;0.93;;;0.50;;
58685;SDS011;44465;53.206;-6.106;2023-01-15T07:38:54;0.25;;;0.10;;
58685;SDS011;44465;53.206;-6.106;2023-01-15T07:41:20;0.43;;;0.30;;
58685;SDS011;44465;53.206;-6.106;2023-01-15T07:44:04;0.30;;;0.30;;
58685;SDS011;44465;53.206;-6.106;2023-01-15T07:46:48;1.83;;;0.47;;
58685;SDS011;44465;53.206;-6.106;2023-01-15T07:49:32;0.70;;;0.40;;
58685;SDS011;44465;53.206;-6.106;2023-01-15T07:52:15;0.30;;;0.17;;
58685;SDS011;44465;53.206;-6.106;2023-01-15T07:54:42;1.25;;;0.40;;
58685;SDS011;44465;53.206;-6.106;2023-01-15T07:57:08;0.50;;;0.30;;
58685;SDS011;44465;53.206;-6.106;2023-01-15T07:59:34;1.00;;;0.20;;
58685;SDS011;44465;53.206;-6.106;2023-01-15T08:02:00;1.58;;;0.45;;
58685;SDS011;44465;53.206;-6.106;2023-01-15T08:04:25;0.20;;;0.20;;
58685;SDS011;44465;53.206;-6.106;2023-01-15T08:06:51;0.28;;;0.28;;
58685;SDS011;44465;53.206;-6.106;2023-01-15T08:09:16;1.00;;;0.30;;
58685;SDS011;44465;53.206;-6.106;2023-01-15T08:11:42;1.95;;;0.30;;
58685;SDS011;44465;53.206;-6.106;2023-01-15T08:14:26;0.25;;;0.20;;
58685;SDS011;44465;53.206;-6.106;2023-01-15T08:17:10;0.57;;;0.50;;
58685;SDS011;44465;53.206;-6.106;2023-01-15T08:19:35;0.35;;;0.30;;
58685;SDS011;44465;53.206;-6.106;2023-01-15T08:22:01;0.45;;;0.10;;
58685;SDS011;44465;53.206;-6.106;2023-01-15T08:24:26;0.20;;;0.20;;
58685;SDS011;44465;53.206;-6.106;2023-01-15T08:26:52;0.30;;;0.25;;
58685;SDS011;44465;53.206;-6.106;2023-01-15T08:29:19;0.38;;;0.20;;
58685;SDS011;44465;53.206;-6.106;2023-01-15T08:31:45;0.20;;;0.20;;
58685;SDS011;44465;53.206;-6.106;2023-01-15T08:34:11;0.45;;;0.35;;
58685;SDS011;44465;53.206;-6.106;2023-01-15T08:36:36;0.90;;;0.22;;
58685;SDS011;44465;53.206;-6.106;2023-01-15T08:39:02;0.82;;;0.43;;
58685;SDS011;44465;53.206;-6.106;2023-01-15T08:41:28;1.13;;;0.40;;
58685;SDS011;44465;53.206;-6.106;2023-01-15T08:43:55;0.20;;;0.20;;
58685;SDS011;44465;53.206;-6.106;2023-01-15T08:46:20;1.27;;;0.40;;
58685;SDS011;44465;53.206;-6.106;2023-01-15T08:48:46;0.30;;;0.30;;
58685;SDS011;44465;53.206;-6.106;2023-01-15T08:51:12;0.20;;;0.20;;
58685;SDS011;44465;53.206;-6.106;2023-01-15T08:53:38;0.40;;;0.30;;
58685;SDS011;44465;53.206;-6.106;2023-01-15T08:56:06;1.35;;;0.20;;
58685;SDS011;44465;53.206;-6.106;2023-01-15T08:58:39;1.15;;;0.40;;
58685;SDS011;44465;53.206;-6.106;2023-01-15T09:01:05;1.10;;;0.25;;
58685;SDS011;44465;53.206;-6.106;2023-01-15T09:03:32;0.30;;;0.30;;
58685;SDS011;44465;53.206;-6.106;2023-01-15T09:05:59;0.28;;;0.20;;
58685;SDS011;44465;53.206;-6.106;2023-01-15T09:08:25;0.70;;;0.20;;
58685;SDS011;44465;53.206;-6.106;2023-01-15T09:10:56;0.28;;;0.28;;
58685;SDS011;44465;53.206;-6.106;2023-01-15T09:13:26;0.32;;;0.20;;
58685;SDS011;44465;53.206;-6.106;2023-01-15T09:15:52;0.40;;;0.40;;
58685;SDS011;44465;53.206;-6.106;2023-01-15T09:18:17;1.08;;;0.20;;
58685;SDS011;44465;53.206;-6.106;2023-01-15T09:20:47;0.65;;;0.32;;
58685;SDS011;44465;53.206;-6.106;2023-01-15T09:23:13;0.47;;;0.30;;
58685;SDS011;44465;53.206;-6.106;2023-01-15T09:25:40;0.20;;;0.20;;
58685;SDS011;44465;53.206;-6.106;2023-01-15T09:28:14;0.65;;;0.28;;
58685;SDS011;44465;53.206;-6.106;2023-01-15T09:30:40;0.63;;;0.20;;
58685;SDS011;44465;53.206;-6.106;2023-01-15T09:33:05;0.10;;;0.10;;
58685;SDS011;44465;53.206;-6.106;2023-01-15T09:35:31;0.20;;;0.20;;
58685;SDS011;44465;53.206;-6.106;2023-01-15T09:37:56;0.30;;;0.30;;
58685;SDS011;44465;53.206;-6.106;2023-01-15T09:43:05;0.17;;;0.17;;
58685;SDS011;44465;53.206;-6.106;2023-01-15T09:45:55;0.32;;;0.32;;
58685;SDS011;44465;53.206;-6.106;2023-01-15T09:54:13;0.90;;;0.20;;
58685;SDS011;44465;53.206;-6.106;2023-01-15T09:56:41;0.20;;;0.20;;
58685;SDS011;44465;53.206;-6.106;2023-01-15T09:59:23;0.68;;;0.32;;
58685;SDS011;44465;53.206;-6.106;2023-01-15T10:02:15;0.40;;;0.30;;
58685;SDS011;44465;53.206;-6.106;2023-01-15T10:04:42;0.30;;;0.30;;
58685;SDS011;44465;53.206;-6.106;2023-01-15T10:07:18;0.30;;;0.22;;
58685;SDS011;44465;53.206;-6.106;2023-01-15T10:09:58;0.22;;;0.22;;
58685;SDS011;44465;53.206;-6.106;2023-01-15T10:12:28;0.28;;;0.28;;
58685;SDS011;44465;53.206;-6.106;2023-01-15T10:15:05;0.25;;;0.20;;
58685;SDS011;44465;53.206;-6.106;2023-01-15T10:25:53;0.28;;;0.28;;
58685;SDS011;44465;53.206;-6.106;2023-01-15T10:28:51;0.22;;;0.20;;
58685;SDS011;44465;53.206;-6.106;2023-01-15T10:31:25;0.10;;;0.10;;
58685;SDS011;44465;53.206;-6.106;2023-01-15T10:36:47;0.43;;;0.30;;
58685;SDS011;44465;53.206;-6.106;2023-01-15T10:39:25;0.20;;;0.20;;
58685;SDS011;44465;53.206;-6.106;2023-01-15T10:44:39;0.40;;;0.28;;
58685;SDS011;44465;53.206;-6.106;2023-01-15T10:47:10;0.10;;;0.10;;
58685;SDS011;44465;53.206;-6.106;2023-01-15T10:49:39;0.20;;;0.20;;
58685;SDS011;44465;53.206;-6.106;2023-01-15T10:52:10;0.68;;;0.47;;
58685;SDS011;44465;53.206;-6.106;2023-01-15T10:57:59;0.43;;;0.20;;
58685;SDS011;44465;53.206;-6.106;2023-01-15T11:03:04;0.20;;;0.20;;
58685;SDS011;44465;53.206;-6.106;2023-01-15T11:05:44;0.20;;;0.20;;
58685;SDS011;44465;53.206;-6.106;2023-01-15T11:08:24;0.22;;;0.20;;
58685;SDS011;44465;53.206;-6.106;2023-01-15T11:11:45;0.47;;;0.32;;
58685;SDS011;44465;53.206;-6.106;2023-01-15T11:14:08;0.20;;;0.20;;
58685;SDS011;44465;53.206;-6.106;2023-01-15T11:16:52;0.40;;;0.20;;
58685;SDS011;44465;53.206;-6.106;2023-01-15T11:19:33;0.28;;;0.25;;
58685;SDS011;44465;53.206;-6.106;2023-01-15T11:24:50;0.88;;;0.20;;
58685;SDS011;44465;53.206;-6.106;2023-01-15T11:27:26;1.15;;;0.30;;
58685;SDS011;44465;53.206;-6.106;2023-01-15T11:29:57;1.52;;;0.40;;
58685;SDS011;44465;53.206;-6.106;2023-01-15T11:32:29;0.25;;;0.22;;
58685;SDS011;44465;53.206;-6.106;2023-01-15T11:34:56;0.20;;;0.20;;
58685;SDS011;44465;53.206;-6.106;2023-01-15T11:37:24;0.40;;;0.30;;
58685;SDS011;44465;53.206;-6.106;2023-01-15T11:39:56;0.65;;;0.40;;
58685;SDS011;44465;53.206;-6.106;2023-01-15T11:42:36;0.20;;;0.20;;
58685;SDS011;44465;53.206;-6.106;2023-01-15T11:48:45;0.30;;;0.30;;
58685;SDS011;44465;53.206;-6.106;2023-01-15T11:51:31;0.30;;;0.30;;
58685;SDS011;44465;53.206;-6.106;2023-01-15T11:57:22;1.00;;;0.20;;
58685;SDS011;44465;53.206;-6.106;2023-01-15T11:59:52;0.20;;;0.20;;
58685;SDS011;44465;53.206;-6.106;2023-01-15T12:02:22;0.50;;;0.20;;
58685;SDS011;44465;53.206;-6.106;2023-01-15T12:04:53;0.25;;;0.25;;
58685;SDS011;44465;53.206;-6.106;2023-01-15T12:07:23;0.40;;;0.32;;
58685;SDS011;44465;53.206;-6.106;2023-01-15T12:13:00;0.40;;;0.40;;
58685;SDS011;44465;53.206;-6.106;2023-01-15T12:26:42;3.92;;;1.08;;
58685;SDS011;44465;53.206;-6.106;2023-01-15T12:29:23;1.63;;;1.17;;
58685;SDS011;44465;53.206;-6.106;2023-01-15T12:32:02;4.78;;;1.00;;
58685;SDS011;44465;53.206;-6.106;2023-01-15T12:42:26;6.75;;;2.50;;
58685;SDS011;44465;53.206;-6.106;2023-01-15T12:45:14;6.88;;;2.65;;
58685;SDS011;44465;53.206;-6.106;2023-01-15T12:47:45;3.85;;;2.45;;
58685;SDS011;44465;53.206;-6.106;2023-01-15T12:53:19;6.22;;;3.53;;
58685;SDS011;44465;53.206;-6.106;2023-01-15T12:55:52;6.07;;;3.70;;
58685;SDS011;44465;53.206;-6.106;2023-01-15T12:58:30;6.75;;;4.07;;
58685;SDS011;44465;53.206;-6.106;2023-01-15T13:01:03;9.73;;;4.57;;
58685;SDS011;44465;53.206;-6.106;2023-01-15T13:06:28;8.50;;;3.95;;
58685;SDS011;44465;53.206;-6.106;2023-01-15T13:09:04;4.97;;;3.40;;
58685;SDS011;44465;53.206;-6.106;2023-01-15T13:11:39;5.10;;;3.85;;
58685;SDS011;44465;53.206;-6.106;2023-01-15T13:14:14;5.80;;;3.27;;
58685;SDS011;44465;53.206;-6.106;2023-01-15T13:21:43;6.53;;;2.67;;
58685;SDS011;44465;53.206;-6.106;2023-01-15T13:27:15;5.25;;;2.53;;
58685;SDS011;44465;53.206;-6.106;2023-01-15T13:30:20;2.00;;;1.80;;
58685;SDS011;44465;53.206;-6.106;2023-01-15T13:32:59;3.17;;;2.20;;
58685;SDS011;44465;53.206;-6.106;2023-01-15T13:35:50;7.00;;;2.13;;
58685;SDS011;44465;53.206;-6.106;2023-01-15T13:38:20;9.10;;;2.00;;
58685;SDS011;44465;53.206;-6.106;2023-01-15T13:40:49;7.78;;;2.30;;
58685;SDS011;44465;53.206;-6.106;2023-01-15T13:46:06;6.07;;;2.10;;
58685;SDS011;44465;53.206;-6.106;2023-01-15T13:51:23;7.68;;;2.33;;
58685;SDS011;44465;53.206;-6.106;2023-01-15T13:53:53;7.35;;;2.95;;
58685;SDS011;44465;53.206;-6.106;2023-01-15T13:56:25;12.40;;;3.05;;
58685;SDS011;44465;53.206;-6.106;2023-01-15T13:58:56;19.48;;;3.42;;
58685;SDS011;44465;53.206;-6.106;2023-01-15T14:01:22;13.57;;;3.72;;
58685;SDS011;44465;53.206;-6.106;2023-01-15T14:06:43;20.10;;;5.07;;
58685;SDS011;44465;53.206;-6.106;2023-01-15T14:09:14;12.63;;;4.40;;
58685;SDS011;44465;53.206;-6.106;2023-01-15T14:35:21;79.68;;;11.23;;
58685;SDS011;44465;53.206;-6.106;2023-01-15T14:37:52;45.05;;;9.55;;
58685;SDS011;44465;53.206;-6.106;2023-01-15T14:40:26;86.60;;;16.02;;
58685;SDS011;44465;53.206;-6.106;2023-01-15T14:42:55;119.93;;;20.52;;
58685;SDS011;44465;53.206;-6.106;2023-01-15T14:47:58;119.50;;;21.98;;
58685;SDS011;44465;53.206;-6.106;2023-01-15T14:50:35;195.93;;;32.45;;
58685;SDS011;44465;53.206;-6.106;2023-01-15T14:55:36;188.38;;;30.73;;
58685;SDS011;44465;53.206;-6.106;2023-01-15T15:00:54;267.75;;;47.78;;
58685;SDS011;44465;53.206;-6.106;2023-01-15T15:03:33;221.32;;;35.17;;
58685;SDS011;44465;53.206;-6.106;2023-01-15T15:06:03;272.83;;;47.38;;
58685;SDS011;44465;53.206;-6.106;2023-01-15T15:08:30;208.93;;;36.35;;
58685;SDS011;44465;53.206;-6.106;2023-01-15T15:10:58;133.60;;;24.75;;
58685;SDS011;44465;53.206;-6.106;2023-01-15T15:26:27;70.60;;;15.82;;
58685;SDS011;44465;53.206;-6.106;2023-01-15T15:31:22;74.82;;;14.50;;
58685;SDS011;44465;53.206;-6.106;2023-01-15T15:33:52;87.82;;;15.30;;
58685;SDS011;44465;53.206;-6.106;2023-01-15T15:36:19;65.75;;;12.30;;
58685;SDS011;44465;53.206;-6.106;2023-01-15T15:39:03;75.10;;;12.68;;
58685;SDS011;44465;53.206;-6.106;2023-01-15T15:41:40;64.15;;;10.85;;
58685;SDS011;44465;53.206;-6.106;2023-01-15T15:47:34;37.25;;;7.78;;
58685;SDS011;44465;53.206;-6.106;2023-01-15T15:50:21;42.95;;;7.68;;
58685;SDS011;44465;53.206;-6.106;2023-01-15T15:52:50;42.90;;;8.15;;
58685;SDS011;44465;53.206;-6.106;2023-01-15T15:55:16;40.13;;;7.22;;
58685;SDS011;44465;53.206;-6.106;2023-01-15T15:57:46;53.42;;;8.73;;
58685;SDS011;44465;53.206;-6.106;2023-01-15T16:00:28;48.45;;;8.75;;
58685;SDS011;44465;53.206;-6.106;2023-01-15T16:03:00;39.30;;;8.55;;
58685;SDS011;44465;53.206;-6.106;2023-01-15T16:05:31;38.42;;;7.63;;
58685;SDS011;44465;53.206;-6.106;2023-01-15T16:10:46;32.58;;;6.38;;
58685;SDS011;44465;53.206;-6.106;2023-01-15T16:13:22;30.08;;;6.15;;
58685;SDS011;44465;53.206;-6.106;2023-01-15T16:15:51;46.30;;;7.13;;
58685;SDS011;44465;53.206;-6.106;2023-01-15T16:18:21;54.17;;;8.55;;
58685;SDS011;44465;53.206;-6.106;2023-01-15T16:20:50;44.15;;;7.35;;
58685;SDS011;44465;53.206;-6.106;2023-01-15T16:23:25;21.40;;;6.20;;
58685;SDS011;44465;53.206;-6.106;2023-01-15T16:28:39;38.05;;;7.82;;
58685;SDS011;44465;53.206;-6.106;2023-01-15T16:31:08;32.22;;;6.53;;
58685;SDS011;44465;53.206;-6.106;2023-01-15T16:33:36;15.30;;;5.20;;
58685;SDS011;44465;53.206;-6.106;2023-01-15T16:36:03;15.88;;;4.93;;
58685;SDS011;44465;53.206;-6.106;2023-01-15T16:38:32;17.90;;;5.75;;
58685;SDS011;44465;53.206;-6.106;2023-01-15T16:41:00;12.85;;;5.45;;
58685;SDS011;44465;53.206;-6.106;2023-01-15T16:43:26;15.63;;;5.32;;
58685;SDS011;44465;53.206;-6.106;2023-01-15T16:46:13;10.18;;;4.78;;
58685;SDS011;44465;53.206;-6.106;2023-01-15T16:48:41;8.18;;;4.40;;
58685;SDS011;44465;53.206;-6.106;2023-01-15T16:51:28;11.85;;;4.60;;
58685;SDS011;44465;53.206;-6.106;2023-01-15T16:53:56;14.02;;;4.55;;
58685;SDS011;44465;53.206;-6.106;2023-01-15T16:57:23;17.53;;;5.30;;
58685;SDS011;44465;53.206;-6.106;2023-01-15T17:01:41;14.23;;;4.38;;
58685;SDS011;44465;53.206;-6.106;2023-01-15T17:04:29;23.38;;;6.63;;
58685;SDS011;44465;53.206;-6.106;2023-01-15T17:06:59;17.17;;;5.88;;
58685;SDS011;44465;53.206;-6.106;2023-01-15T17:09:29;125.63;;;16.27;;
58685;SDS011;44465;53.206;-6.106;2023-01-15T17:11:57;61.03;;;10.90;;
58685;SDS011;44465;53.206;-6.106;2023-01-15T17:14:28;94.88;;;12.98;;
58685;SDS011;44465;53.206;-6.106;2023-01-15T17:19:48;20.15;;;6.60;;
58685;SDS011;44465;53.206;-6.106;2023-01-15T17:22:17;33.78;;;7.07;;
58685;SDS011;44465;53.206;-6.106;2023-01-15T17:24:50;15.55;;;4.78;;
58685;SDS011;44465;53.206;-6.106;2023-01-15T17:27:17;18.38;;;5.82;;
58685;SDS011;44465;53.206;-6.106;2023-01-15T17:29:42;39.92;;;8.75;;
58685;SDS011;44465;53.206;-6.106;2023-01-15T17:32:12;64.03;;;12.20;;
58685;SDS011;44465;53.206;-6.106;2023-01-15T17:34:41;159.18;;;24.35;;
58685;SDS011;44465;53.206;-6.106;2023-01-15T17:37:06;102.45;;;17.70;;
58685;SDS011;44465;53.206;-6.106;2023-01-15T17:39:32;92.35;;;18.60;;
58685;SDS011;44465;53.206;-6.106;2023-01-15T17:41:57;66.65;;;16.38;;
58685;SDS011;44465;53.206;-6.106;2023-01-15T17:44:23;46.65;;;10.85;;